sensor_id;sensor_type;location;lat;lon;timestamp;pressure;altitude;pressure_sealevel;temperature;humidity
70248;BME280;57641;51.416;5.506;2023-02-18T00:00:25;102411.38;;;15.62;63.21
70248;BME280;57641;51.416;5.506;2023-02-18T00:02:51;102390.41;;;15.66;63.02
70248;BME280;57641;51.416;5.506;2023-02-18T00:05:17;102392.63;;;15.43;63.42
70248;BME280;57641;51.416;5.506;2023-02-18T00:07:46;102382.72;;;15.44;63.96
70248;BME280;57641;51.416;5.506;2023-02-18T00:10:16;102389.66;;;15.37;63.71
70248;BME280;57641;51.416;5.506;2023-02-18T00:12:42;102378.97;;;15.17;64.75
70248;BME280;57641;51.416;5.506;2023-02-18T00:15:09;102382.91;;;15.33;64.05
70248;BME280;57641;51.416;5.506;2023-02-18T00:17:38;102377.88;;;15.47;63.80
70248;BME280;57641;51.416;5.506;2023-02-18T00:20:11;102377.47;;;15.42;63.88
70248;BME280;57641;51.416;5.506;2023-02-18T00:22:40;102376.84;;;15.21;64.78
70248;BME280;57641;51.416;5.506;2023-02-18T00:25:05;102371.91;;;15.16;65.00
70248;BME280;57641;51.416;5.506;2023-02-18T00:27:35;102371.13;;;15.34;64.40
70248;BME280;57641;51.416;5.506;2023-02-18T00:30:00;102373.59;;;15.17;64.72
70248;BME280;57641;51.416;5.506;2023-02-18T00:32:28;102375.47;;;15.17;64.67
70248;BME280;57641;51.416;5.506;2023-02-18T00:34:54;102364.09;;;15.33;64.91
70248;BME280;57641;51.416;5.506;2023-02-18T00:37:20;102372.72;;;15.27;64.52
70248;BME280;57641;51.416;5.506;2023-02-18T00:39:45;102377.25;;;15.26;64.89
70248;BME280;57641;51.416;5.506;2023-02-18T00:42:14;102380.78;;;15.27;65.18
70248;BME280;57641;51.416;5.506;2023-02-18T00:44:40;102368.16;;;14.80;66.82
70248;BME280;57641;51.416;5.506;2023-02-18T00:47:06;102360.19;;;15.08;66.10
70248;BME280;57641;51.416;5.506;2023-02-18T00:49:32;102356.94;;;15.14;66.21
70248;BME280;57641;51.416;5.506;2023-02-18T00:51:57;102351.41;;;15.15;65.72
70248;BME280;57641;51.416;5.506;2023-02-18T00:54:22;102342.31;;;15.26;65.90
70248;BME280;57641;51.416;5.506;2023-02-18T00:56:49;102333.09;;;15.29;65.80
70248;BME280;57641;51.416;5.506;2023-02-18T00:59:15;102339.41;;;15.10;66.12
70248;BME280;57641;51.416;5.506;2023-02-18T01:01:40;102338.47;;;15.29;66.10
70248;BME280;57641;51.416;5.506;2023-02-18T01:04:06;102327.72;;;15.29;65.97
70248;BME280;57641;51.416;5.506;2023-02-18T01:06:31;102336.59;;;15.11;66.84
70248;BME280;57641;51.416;5.506;2023-02-18T01:08:57;102339.00;;;15.05;66.89
70248;BME280;57641;51.416;5.506;2023-02-18T01:11:23;102335.97;;;15.27;66.42
70248;BME280;57641;51.416;5.506;2023-02-18T01:13:50;102329.28;;;15.31;66.33
70248;BME280;57641;51.416;5.506;2023-02-18T01:16:16;102318.69;;;15.30;66.34
70248;BME280;57641;51.416;5.506;2023-02-18T01:18:43;102320.03;;;15.16;67.08
70248;BME280;57641;51.416;5.506;2023-02-18T01:21:12;102317.06;;;15.09;66.88
70248;BME280;57641;51.416;5.506;2023-02-18T01:23:46;102323.59;;;14.97;67.09
70248;BME280;57641;51.416;5.506;2023-02-18T01:26:12;102338.25;;;15.12;67.32
70248;BME280;57641;51.416;5.506;2023-02-18T01:28:41;102324.75;;;14.95;67.97
70248;BME280;57641;51.416;5.506;2023-02-18T01:31:09;102322.34;;;14.92;68.73
70248;BME280;57641;51.416;5.506;2023-02-18T01:33:36;102335.13;;;14.70;69.29
70248;BME280;57641;51.416;5.506;2023-02-18T01:36:02;102322.09;;;14.75;69.03
70248;BME280;57641;51.416;5.506;2023-02-18T01:38:28;102325.03;;;14.92;68.64
70248;BME280;57641;51.416;5.506;2023-02-18T01:40:54;102317.34;;;14.69;69.34
70248;BME280;57641;51.416;5.506;2023-02-18T01:43:21;102321.16;;;14.57;70.02
70248;BME280;57641;51.416;5.506;2023-02-18T01:48:56;102300.63;;;14.75;69.44
70248;BME280;57641;51.416;5.506;2023-02-18T01:51:38;102297.84;;;14.58;69.48
70248;BME280;57641;51.416;5.506;2023-02-18T01:54:14;102292.22;;;14.51;70.42
70248;BME280;57641;51.416;5.506;2023-02-18T01:56:56;102286.06;;;14.78;69.48
70248;BME280;57641;51.416;5.506;2023-02-18T01:59:39;102293.00;;;14.71;69.92
70248;BME280;57641;51.416;5.506;2023-02-18T02:02:10;102295.19;;;14.58;70.25
70248;BME280;57641;51.416;5.506;2023-02-18T02:04:37;102290.50;;;14.60;70.15
70248;BME280;57641;51.416;5.506;2023-02-18T02:07:07;102284.50;;;14.75;70.17
70248;BME280;57641;51.416;5.506;2023-02-18T02:09:33;102285.53;;;14.74;69.18
70248;BME280;57641;51.416;5.506;2023-02-18T02:36:58;102263.66;;;14.60;70.05
70248;BME280;57641;51.416;5.506;2023-02-18T02:51:24;102230.44;;;14.61;69.70
70248;BME280;57641;51.416;5.506;2023-02-18T02:53:53;102218.47;;;14.55;69.82
70248;BME280;57641;51.416;5.506;2023-02-18T02:56:24;102228.38;;;14.45;70.16
70248;BME280;57641;51.416;5.506;2023-02-18T02:59:00;102220.28;;;14.55;70.04
70248;BME280;57641;51.416;5.506;2023-02-18T03:12:00;102202.34;;;14.55;70.58
70248;BME280;57641;51.416;5.506;2023-02-18T03:14:29;102200.13;;;14.51;70.26
70248;BME280;57641;51.416;5.506;2023-02-18T03:17:29;102188.25;;;14.34;70.51
70248;BME280;57641;51.416;5.506;2023-02-18T03:20:09;102190.53;;;14.48;70.07
70248;BME280;57641;51.416;5.506;2023-02-18T03:22:46;102184.22;;;14.11;71.91
70248;BME280;57641;51.416;5.506;2023-02-18T03:25:15;102177.66;;;14.52;70.81
70248;BME280;57641;51.416;5.506;2023-02-18T03:27:54;102169.47;;;14.53;70.56
70248;BME280;57641;51.416;5.506;2023-02-18T03:33:07;102162.19;;;14.26;70.96
70248;BME280;57641;51.416;5.506;2023-02-18T03:35:36;102162.00;;;14.47;70.42
70248;BME280;57641;51.416;5.506;2023-02-18T03:38:28;102158.13;;;14.59;69.72
70248;BME280;57641;51.416;5.506;2023-02-18T03:40:58;102146.03;;;14.46;71.25
70248;BME280;57641;51.416;5.506;2023-02-18T03:43:24;102145.19;;;14.45;70.34
70248;BME280;57641;51.416;5.506;2023-02-18T03:45:50;102139.13;;;14.33;70.40
70248;BME280;57641;51.416;5.506;2023-02-18T03:48:17;102141.13;;;14.41;70.59
70248;BME280;57641;51.416;5.506;2023-02-18T03:50:42;102142.81;;;14.32;70.68
70248;BME280;57641;51.416;5.506;2023-02-18T03:53:09;102134.19;;;14.29;71.01
70248;BME280;57641;51.416;5.506;2023-02-18T03:55:34;102138.75;;;14.38;70.66
70248;BME280;57641;51.416;5.506;2023-02-18T03:58:03;102130.47;;;14.49;70.38
70248;BME280;57641;51.416;5.506;2023-02-18T04:00:28;102119.22;;;14.36;69.99
70248;BME280;57641;51.416;5.506;2023-02-18T04:02:54;102132.09;;;14.23;70.57
70248;BME280;57641;51.416;5.506;2023-02-18T04:05:20;102120.91;;;13.90;72.34
70248;BME280;57641;51.416;5.506;2023-02-18T04:07:45;102114.09;;;14.06;71.38
70248;BME280;57641;51.416;5.506;2023-02-18T04:10:12;102109.72;;;14.05;71.12
70248;BME280;57641;51.416;5.506;2023-02-18T04:12:40;102111.75;;;14.30;70.64
70248;BME280;57641;51.416;5.506;2023-02-18T04:15:06;102105.94;;;14.34;70.91
70248;BME280;57641;51.416;5.506;2023-02-18T04:17:35;102095.78;;;14.28;71.14
70248;BME280;57641;51.416;5.506;2023-02-18T04:20:00;102096.38;;;14.32;71.30
70248;BME280;57641;51.416;5.506;2023-02-18T04:22:29;102102.00;;;14.29;71.13
70248;BME280;57641;51.416;5.506;2023-02-18T04:24:54;102092.53;;;14.34;69.96
70248;BME280;57641;51.416;5.506;2023-02-18T04:27:23;102099.25;;;14.11;71.19
70248;BME280;57641;51.416;5.506;2023-02-18T04:29:49;102104.25;;;14.33;71.00
70248;BME280;57641;51.416;5.506;2023-02-18T04:32:18;102094.13;;;14.27;70.33
70248;BME280;57641;51.416;5.506;2023-02-18T04:34:43;102105.03;;;14.16;70.97
70248;BME280;57641;51.416;5.506;2023-02-18T04:37:09;102104.84;;;14.18;71.37
70248;BME280;57641;51.416;5.506;2023-02-18T04:39:34;102096.13;;;14.16;70.90
70248;BME280;57641;51.416;5.506;2023-02-18T04:42:00;102090.28;;;14.40;70.79
70248;BME280;57641;51.416;5.506;2023-02-18T04:44:26;102095.81;;;14.19;71.11
70248;BME280;57641;51.416;5.506;2023-02-18T04:46:52;102099.91;;;14.23;70.24
70248;BME280;57641;51.416;5.506;2023-02-18T04:49:17;102107.81;;;14.24;70.60
70248;BME280;57641;51.416;5.506;2023-02-18T04:51:52;102103.19;;;14.07;71.37
70248;BME280;57641;51.416;5.506;2023-02-18T04:54:18;102092.81;;;14.31;70.70
70248;BME280;57641;51.416;5.506;2023-02-18T04:56:44;102106.00;;;14.15;71.00
70248;BME280;57641;51.416;5.506;2023-02-18T04:59:09;102091.34;;;14.10;71.30
70248;BME280;57641;51.416;5.506;2023-02-18T05:01:36;102072.44;;;14.11;71.40
70248;BME280;57641;51.416;5.506;2023-02-18T05:04:01;102088.41;;;14.03;72.02
70248;BME280;57641;51.416;5.506;2023-02-18T05:06:27;102083.56;;;14.07;71.02
70248;BME280;57641;51.416;5.506;2023-02-18T05:08:53;102084.16;;;14.10;71.51
70248;BME280;57641;51.416;5.506;2023-02-18T05:11:18;102072.84;;;14.07;71.53
70248;BME280;57641;51.416;5.506;2023-02-18T05:13:45;102079.78;;;14.09;71.48
70248;BME280;57641;51.416;5.506;2023-02-18T05:16:10;102065.91;;;14.14;71.35
70248;BME280;57641;51.416;5.506;2023-02-18T05:18:36;102067.50;;;14.07;71.38
70248;BME280;57641;51.416;5.506;2023-02-18T05:21:02;102069.84;;;14.19;71.28
70248;BME280;57641;51.416;5.506;2023-02-18T05:23:27;102059.25;;;14.27;70.67
70248;BME280;57641;51.416;5.506;2023-02-18T05:25:53;102056.19;;;14.13;71.50
70248;BME280;57641;51.416;5.506;2023-02-18T05:28:19;102059.72;;;14.13;71.57
70248;BME280;57641;51.416;5.506;2023-02-18T05:30:45;102049.81;;;14.14;71.04
70248;BME280;57641;51.416;5.506;2023-02-18T05:33:11;102036.06;;;13.99;71.67
70248;BME280;57641;51.416;5.506;2023-02-18T05:35:37;102038.09;;;13.78;71.98
70248;BME280;57641;51.416;5.506;2023-02-18T05:38:02;102038.59;;;13.91;71.93
70248;BME280;57641;51.416;5.506;2023-02-18T05:40:28;102042.56;;;13.87;72.39
70248;BME280;57641;51.416;5.506;2023-02-18T05:42:57;102045.22;;;14.06;71.53
70248;BME280;57641;51.416;5.506;2023-02-18T05:45:22;102044.50;;;14.04;71.57
70248;BME280;57641;51.416;5.506;2023-02-18T05:47:48;102043.44;;;13.87;71.64
70248;BME280;57641;51.416;5.506;2023-02-18T05:50:20;102052.31;;;13.88;71.75
70248;BME280;57641;51.416;5.506;2023-02-18T05:52:45;102055.84;;;13.88;71.67
70248;BME280;57641;51.416;5.506;2023-02-18T05:55:11;102051.28;;;13.99;71.76
70248;BME280;57641;51.416;5.506;2023-02-18T05:57:37;102056.69;;;13.89;71.50
70248;BME280;57641;51.416;5.506;2023-02-18T06:00:04;102050.34;;;13.90;71.65
70248;BME280;57641;51.416;5.506;2023-02-18T06:02:30;102060.00;;;13.64;71.82
70248;BME280;57641;51.416;5.506;2023-02-18T06:04:56;102050.25;;;13.63;72.17
70248;BME280;57641;51.416;5.506;2023-02-18T06:07:21;102036.56;;;13.66;72.39
70248;BME280;57641;51.416;5.506;2023-02-18T06:09:47;102035.88;;;13.54;73.18
70248;BME280;57641;51.416;5.506;2023-02-18T06:12:13;102027.31;;;13.41;73.22
70248;BME280;57641;51.416;5.506;2023-02-18T06:14:39;102027.84;;;13.64;72.82
70248;BME280;57641;51.416;5.506;2023-02-18T06:17:11;102034.25;;;13.90;72.42
70248;BME280;57641;51.416;5.506;2023-02-18T06:19:40;102015.66;;;13.79;71.17
70248;BME280;57641;51.416;5.506;2023-02-18T06:22:07;102011.16;;;13.70;72.17
70248;BME280;57641;51.416;5.506;2023-02-18T06:24:33;102024.88;;;13.67;72.30
70248;BME280;57641;51.416;5.506;2023-02-18T06:27:01;102030.13;;;13.59;72.39
70248;BME280;57641;51.416;5.506;2023-02-18T06:29:27;102016.78;;;13.76;71.82
70248;BME280;57641;51.416;5.506;2023-02-18T06:31:57;102000.66;;;13.86;71.31
70248;BME280;57641;51.416;5.506;2023-02-18T06:34:23;102012.59;;;13.54;71.70
70248;BME280;57641;51.416;5.506;2023-02-18T06:36:48;102017.81;;;13.66;71.76
70248;BME280;57641;51.416;5.506;2023-02-18T06:39:14;102010.72;;;13.84;70.77
70248;BME280;57641;51.416;5.506;2023-02-18T06:41:40;102008.03;;;13.84;70.86
70248;BME280;57641;51.416;5.506;2023-02-18T06:44:07;102036.00;;;13.72;71.06
70248;BME280;57641;51.416;5.506;2023-02-18T06:46:33;102028.09;;;13.70;71.21
70248;BME280;57641;51.416;5.506;2023-02-18T06:49:00;102028.66;;;13.74;71.67
70248;BME280;57641;51.416;5.506;2023-02-18T06:51:25;102035.59;;;13.57;71.31
70248;BME280;57641;51.416;5.506;2023-02-18T06:53:51;102035.69;;;13.75;70.98
70248;BME280;57641;51.416;5.506;2023-02-18T06:56:17;102036.03;;;13.52;70.75
70248;BME280;57641;51.416;5.506;2023-02-18T06:58:43;102034.44;;;13.79;71.18
70248;BME280;57641;51.416;5.506;2023-02-18T07:01:09;102039.28;;;13.46;71.58
70248;BME280;57641;51.416;5.506;2023-02-18T07:03:34;102044.44;;;13.77;70.68
70248;BME280;57641;51.416;5.506;2023-02-18T07:06:04;102038.81;;;13.80;70.52
70248;BME280;57641;51.416;5.506;2023-02-18T07:08:29;102031.78;;;13.60;71.17
70248;BME280;57641;51.416;5.506;2023-02-18T07:10:57;102046.19;;;13.39;71.62
70248;BME280;57641;51.416;5.506;2023-02-18T07:13:23;102048.81;;;13.78;70.64
70248;BME280;57641;51.416;5.506;2023-02-18T07:15:49;102055.22;;;13.58;70.45
70248;BME280;57641;51.416;5.506;2023-02-18T07:18:15;102051.34;;;13.70;69.62
70248;BME280;57641;51.416;5.506;2023-02-18T07:20:41;102061.81;;;13.53;68.84
70248;BME280;57641;51.416;5.506;2023-02-18T07:23:10;102054.91;;;13.61;69.05
70248;BME280;57641;51.416;5.506;2023-02-18T07:25:36;102042.53;;;13.40;69.54
70248;BME280;57641;51.416;5.506;2023-02-18T07:28:04;102039.31;;;13.37;68.65
70248;BME280;57641;51.416;5.506;2023-02-18T07:30:30;102050.09;;;13.06;69.40
70248;BME280;57641;51.416;5.506;2023-02-18T07:32:56;102051.69;;;13.28;68.85
70248;BME280;57641;51.416;5.506;2023-02-18T07:35:22;102028.72;;;13.35;68.07
70248;BME280;57641;51.416;5.506;2023-02-18T07:37:49;102032.53;;;13.23;67.94
70248;BME280;57641;51.416;5.506;2023-02-18T07:40:19;102028.03;;;13.43;66.95
70248;BME280;57641;51.416;5.506;2023-02-18T07:42:44;102034.78;;;13.47;66.37
70248;BME280;57641;51.416;5.506;2023-02-18T07:45:11;102043.81;;;13.36;66.13
70248;BME280;57641;51.416;5.506;2023-02-18T07:47:37;102048.59;;;13.42;66.31
70248;BME280;57641;51.416;5.506;2023-02-18T07:50:08;102065.22;;;13.46;65.46
70248;BME280;57641;51.416;5.506;2023-02-18T07:52:34;102051.09;;;13.53;65.63
70248;BME280;57641;51.416;5.506;2023-02-18T07:55:00;102055.94;;;13.40;64.93
70248;BME280;57641;51.416;5.506;2023-02-18T07:57:26;102054.47;;;13.65;65.07
70248;BME280;57641;51.416;5.506;2023-02-18T07:59:52;102071.41;;;13.56;65.08
70248;BME280;57641;51.416;5.506;2023-02-18T08:02:21;102079.75;;;13.63;64.76
70248;BME280;57641;51.416;5.506;2023-02-18T08:04:48;102065.53;;;13.43;65.40
70248;BME280;57641;51.416;5.506;2023-02-18T08:07:16;102066.75;;;13.68;65.03
70248;BME280;57641;51.416;5.506;2023-02-18T08:09:43;102071.53;;;13.64;64.31
70248;BME280;57641;51.416;5.506;2023-02-18T08:12:09;102070.03;;;13.52;64.68
70248;BME280;57641;51.416;5.506;2023-02-18T08:14:35;102066.47;;;13.71;64.57
70248;BME280;57641;51.416;5.506;2023-02-18T08:17:01;102058.84;;;13.66;64.28
70248;BME280;57641;51.416;5.506;2023-02-18T08:19:26;102070.88;;;13.52;64.16
70248;BME280;57641;51.416;5.506;2023-02-18T08:21:52;102071.41;;;13.66;63.89
70248;BME280;57641;51.416;5.506;2023-02-18T08:24:18;102071.28;;;13.67;63.48
70248;BME280;57641;51.416;5.506;2023-02-18T08:26:44;102068.00;;;13.83;63.10
70248;BME280;57641;51.416;5.506;2023-02-18T08:29:09;102064.78;;;13.60;63.45
70248;BME280;57641;51.416;5.506;2023-02-18T08:31:35;102061.06;;;13.90;63.06
70248;BME280;57641;51.416;5.506;2023-02-18T08:34:01;102072.19;;;13.95;63.07
70248;BME280;57641;51.416;5.506;2023-02-18T08:36:28;102069.13;;;13.90;62.73
70248;BME280;57641;51.416;5.506;2023-02-18T08:38:56;102070.09;;;13.89;62.67
70248;BME280;57641;51.416;5.506;2023-02-18T08:41:23;102066.41;;;14.00;61.50
70248;BME280;57641;51.416;5.506;2023-02-18T08:43:52;102067.16;;;13.82;61.80
70248;BME280;57641;51.416;5.506;2023-02-18T08:46:18;102057.50;;;13.99;61.63
70248;BME280;57641;51.416;5.506;2023-02-18T08:48:44;102059.03;;;14.02;62.61
70248;BME280;57641;51.416;5.506;2023-02-18T08:51:21;102060.06;;;14.01;60.96
70248;BME280;57641;51.416;5.506;2023-02-18T08:53:48;102061.72;;;14.02;61.52
70248;BME280;57641;51.416;5.506;2023-02-18T08:56:14;102057.69;;;13.88;61.59
70248;BME280;57641;51.416;5.506;2023-02-18T08:58:46;102064.00;;;13.96;61.09
70248;BME280;57641;51.416;5.506;2023-02-18T09:01:12;102065.81;;;14.06;61.22
70248;BME280;57641;51.416;5.506;2023-02-18T09:03:39;102059.66;;;13.86;61.07
70248;BME280;57641;51.416;5.506;2023-02-18T09:06:05;102053.22;;;13.60;61.72
70248;BME280;57641;51.416;5.506;2023-02-18T09:08:31;102063.75;;;13.90;61.25
70248;BME280;57641;51.416;5.506;2023-02-18T09:11:05;102055.47;;;13.74;61.46
70248;BME280;57641;51.416;5.506;2023-02-18T09:13:32;102060.75;;;13.93;61.00
70248;BME280;57641;51.416;5.506;2023-02-18T09:16:13;102059.16;;;14.10;60.46
70248;BME280;57641;51.416;5.506;2023-02-18T09:18:40;102056.75;;;14.16;59.66
70248;BME280;57641;51.416;5.506;2023-02-18T09:21:07;102055.16;;;14.23;58.64
70248;BME280;57641;51.416;5.506;2023-02-18T09:23:36;102049.25;;;14.20;59.42
70248;BME280;57641;51.416;5.506;2023-02-18T09:26:05;102064.00;;;13.96;59.06
70248;BME280;57641;51.416;5.506;2023-02-18T09:28:35;102063.84;;;13.98;59.00
70248;BME280;57641;51.416;5.506;2023-02-18T09:31:09;102064.88;;;13.87;59.22
70248;BME280;57641;51.416;5.506;2023-02-18T09:33:42;102067.44;;;13.79;60.52
70248;BME280;57641;51.416;5.506;2023-02-18T09:36:08;102083.78;;;13.86;60.88
70248;BME280;57641;51.416;5.506;2023-02-18T09:38:34;102063.34;;;13.75;60.84
70248;BME280;57641;51.416;5.506;2023-02-18T09:41:03;102064.03;;;13.87;60.80
70248;BME280;57641;51.416;5.506;2023-02-18T09:43:38;102079.22;;;14.06;60.36
70248;BME280;57641;51.416;5.506;2023-02-18T09:46:21;102072.03;;;13.96;61.25
70248;BME280;57641;51.416;5.506;2023-02-18T09:48:48;102081.41;;;13.83;61.61
70248;BME280;57641;51.416;5.506;2023-02-18T09:51:17;102081.25;;;13.75;62.12
70248;BME280;57641;51.416;5.506;2023-02-18T09:53:44;102076.34;;;13.80;61.90
70248;BME280;57641;51.416;5.506;2023-02-18T09:56:21;102069.38;;;13.87;62.15
70248;BME280;57641;51.416;5.506;2023-02-18T09:58:51;102082.53;;;13.90;62.02
70248;BME280;57641;51.416;5.506;2023-02-18T10:01:33;102079.25;;;13.86;61.37
70248;BME280;57641;51.416;5.506;2023-02-18T10:04:16;102073.78;;;13.78;61.81
70248;BME280;57641;51.416;5.506;2023-02-18T10:06:45;102075.91;;;13.84;61.72
70248;BME280;57641;51.416;5.506;2023-02-18T10:09:39;102082.09;;;13.75;62.59
70248;BME280;57641;51.416;5.506;2023-02-18T10:12:18;102079.75;;;13.43;63.20
70248;BME280;57641;51.416;5.506;2023-02-18T10:14:53;102087.63;;;13.54;62.46
70248;BME280;57641;51.416;5.506;2023-02-18T10:17:23;102089.88;;;13.78;61.74
70248;BME280;57641;51.416;5.506;2023-02-18T10:19:51;102104.41;;;13.66;61.83
70248;BME280;57641;51.416;5.506;2023-02-18T10:22:19;102097.31;;;13.94;61.28
70248;BME280;57641;51.416;5.506;2023-02-18T10:24:50;102091.41;;;13.90;61.53
70248;BME280;57641;51.416;5.506;2023-02-18T10:29:48;102095.03;;;13.99;61.47
70248;BME280;57641;51.416;5.506;2023-02-18T10:32:33;102100.97;;;14.03;61.72
70248;BME280;57641;51.416;5.506;2023-02-18T10:35:15;102114.19;;;14.14;61.74
70248;BME280;57641;51.416;5.506;2023-02-18T10:43:24;102117.34;;;14.00;62.27
70248;BME280;57641;51.416;5.506;2023-02-18T10:51:42;102113.69;;;13.91;63.39
70248;BME280;57641;51.416;5.506;2023-02-18T10:54:13;102123.28;;;13.93;63.36
70248;BME280;57641;51.416;5.506;2023-02-18T10:56:47;102125.06;;;14.22;62.75
70248;BME280;57641;51.416;5.506;2023-02-18T10:59:20;102113.31;;;14.23;62.76
70248;BME280;57641;51.416;5.506;2023-02-18T11:01:54;102121.53;;;14.21;62.90
70248;BME280;57641;51.416;5.506;2023-02-18T11:04:25;102129.94;;;14.36;61.74
70248;BME280;57641;51.416;5.506;2023-02-18T11:06:52;102129.97;;;14.26;62.88
70248;BME280;57641;51.416;5.506;2023-02-18T11:09:42;102121.19;;;14.34;63.23
70248;BME280;57641;51.416;5.506;2023-02-18T11:12:22;102130.31;;;14.04;64.20
70248;BME280;57641;51.416;5.506;2023-02-18T11:15:23;102127.03;;;14.20;63.94
70248;BME280;57641;51.416;5.506;2023-02-18T11:17:53;102128.22;;;13.98;64.02
70248;BME280;57641;51.416;5.506;2023-02-18T11:20:24;102131.28;;;14.13;63.40
70248;BME280;57641;51.416;5.506;2023-02-18T11:22:50;102127.13;;;14.28;62.60
70248;BME280;57641;51.416;5.506;2023-02-18T11:25:27;102135.19;;;14.28;62.01
70248;BME280;57641;51.416;5.506;2023-02-18T11:28:03;102129.22;;;14.44;62.22
70248;BME280;57641;51.416;5.506;2023-02-18T11:31:03;102124.44;;;14.47;61.83
70248;BME280;57641;51.416;5.506;2023-02-18T11:33:47;102122.59;;;14.48;62.15
70248;BME280;57641;51.416;5.506;2023-02-18T11:38:53;102114.66;;;14.00;64.38
70248;BME280;57641;51.416;5.506;2023-02-18T11:41:36;102116.44;;;14.18;64.49
70248;BME280;57641;51.416;5.506;2023-02-18T11:44:26;102112.38;;;14.14;64.46
70248;BME280;57641;51.416;5.506;2023-02-18T11:49:26;102108.59;;;14.44;62.81
70248;BME280;57641;51.416;5.506;2023-02-18T11:51:54;102121.09;;;14.63;62.10
70248;BME280;57641;51.416;5.506;2023-02-18T11:54:27;102103.97;;;14.73;62.21
70248;BME280;57641;51.416;5.506;2023-02-18T11:57:04;102099.78;;;14.61;62.34
70248;BME280;57641;51.416;5.506;2023-02-18T11:59:35;102100.69;;;14.52;62.63
70248;BME280;57641;51.416;5.506;2023-02-18T12:02:25;102108.81;;;14.60;62.86
70248;BME280;57641;51.416;5.506;2023-02-18T12:05:29;102109.78;;;14.69;62.50
70248;BME280;57641;51.416;5.506;2023-02-18T12:08:00;102115.28;;;14.40;63.04
70248;BME280;57641;51.416;5.506;2023-02-18T12:24:36;102114.59;;;14.38;65.28
70248;BME280;57641;51.416;5.506;2023-02-18T12:27:34;102107.97;;;14.60;64.92
70248;BME280;57641;51.416;5.506;2023-02-18T12:48:20;102091.59;;;14.63;63.67
70248;BME280;57641;51.416;5.506;2023-02-18T12:57:06;102093.38;;;14.72;64.42
70248;BME280;57641;51.416;5.506;2023-02-18T13:16:25;102077.25;;;15.17;63.09
70248;BME280;57641;51.416;5.506;2023-02-18T13:21:38;102103.59;;;14.86;63.40
70248;BME280;57641;51.416;5.506;2023-02-18T13:24:10;102088.19;;;14.88;63.43
70248;BME280;57641;51.416;5.506;2023-02-18T13:26:38;102089.22;;;15.05;62.58
70248;BME280;57641;51.416;5.506;2023-02-18T13:29:26;102091.19;;;15.03;63.10
70248;BME280;57641;51.416;5.506;2023-02-18T13:32:16;102088.34;;;15.04;62.73
70248;BME280;57641;51.416;5.506;2023-02-18T13:35:18;102077.06;;;15.18;62.76
70248;BME280;57641;51.416;5.506;2023-02-18T13:40:33;102080.22;;;15.14;63.08
70248;BME280;57641;51.416;5.506;2023-02-18T13:43:28;102094.66;;;15.31;62.70
70248;BME280;57641;51.416;5.506;2023-02-18T13:46:15;102094.28;;;15.26;62.87
70248;BME280;57641;51.416;5.506;2023-02-18T13:48:48;102093.88;;;15.03;64.22
70248;BME280;57641;51.416;5.506;2023-02-18T13:51:44;102085.28;;;14.99;64.21
70248;BME280;57641;51.416;5.506;2023-02-18T13:57:02;102081.22;;;15.13;64.58
70248;BME280;57641;51.416;5.506;2023-02-18T13:59:38;102082.59;;;15.35;63.97
70248;BME280;57641;51.416;5.506;2023-02-18T14:13:01;102090.53;;;15.54;62.96
70248;BME280;57641;51.416;5.506;2023-02-18T14:15:56;102095.94;;;15.54;62.74
70248;BME280;57641;51.416;5.506;2023-02-18T14:18:30;102089.28;;;15.48;62.60
70248;BME280;57641;51.416;5.506;2023-02-18T14:21:17;102088.00;;;15.52;62.97
70248;BME280;57641;51.416;5.506;2023-02-18T14:28:58;102083.84;;;15.58;62.40
70248;BME280;57641;51.416;5.506;2023-02-18T14:31:29;102092.28;;;15.63;62.36
70248;BME280;57641;51.416;5.506;2023-02-18T14:48:21;102083.16;;;15.20;62.07
70248;BME280;57641;51.416;5.506;2023-02-18T14:50:55;102081.53;;;15.45;61.67
70248;BME280;57641;51.416;5.506;2023-02-18T14:53:25;102092.81;;;15.31;61.75
70248;BME280;57641;51.416;5.506;2023-02-18T14:55:58;102083.84;;;15.58;61.07
70248;BME280;57641;51.416;5.506;2023-02-18T14:58:38;102075.91;;;15.39;61.30
70248;BME280;57641;51.416;5.506;2023-02-18T15:01:21;102077.47;;;15.59;60.84
70248;BME280;57641;51.416;5.506;2023-02-18T15:03:55;102079.28;;;15.76;59.63
70248;BME280;57641;51.416;5.506;2023-02-18T15:08:49;102080.22;;;15.93;59.69
70248;BME280;57641;51.416;5.506;2023-02-18T15:11:16;102084.66;;;15.76;60.00
70248;BME280;57641;51.416;5.506;2023-02-18T15:13:45;102081.72;;;15.87;59.98
70248;BME280;57641;51.416;5.506;2023-02-18T15:16:32;102086.66;;;15.74;59.77
70248;BME280;57641;51.416;5.506;2023-02-18T15:19:04;102079.38;;;15.49;60.22
70248;BME280;57641;51.416;5.506;2023-02-18T15:21:54;102082.75;;;15.69;59.86
70248;BME280;57641;51.416;5.506;2023-02-18T15:24:37;102084.84;;;15.75;59.73
70248;BME280;57641;51.416;5.506;2023-02-18T15:27:36;102079.22;;;15.68;59.70
70248;BME280;57641;51.416;5.506;2023-02-18T15:30:24;102082.38;;;15.63;60.47
70248;BME280;57641;51.416;5.506;2023-02-18T15:32:54;102080.66;;;15.80;60.35
70248;BME280;57641;51.416;5.506;2023-02-18T15:35:32;102082.06;;;15.92;59.58
70248;BME280;57641;51.416;5.506;2023-02-18T15:38:01;102075.34;;;15.88;59.91
70248;BME280;57641;51.416;5.506;2023-02-18T15:40:31;102072.34;;;15.91;59.81
70248;BME280;57641;51.416;5.506;2023-02-18T15:43:05;102077.03;;;15.89;60.60
70248;BME280;57641;51.416;5.506;2023-02-18T15:45:35;102079.44;;;15.75;60.76
70248;BME280;57641;51.416;5.506;2023-02-18T15:48:06;102074.44;;;15.80;60.82
70248;BME280;57641;51.416;5.506;2023-02-18T15:50:37;102073.34;;;15.90;60.69
70248;BME280;57641;51.416;5.506;2023-02-18T15:53:14;102078.38;;;15.68;61.31
70248;BME280;57641;51.416;5.506;2023-02-18T15:55:44;102082.19;;;15.83;61.14